KFAT/FAT METAR and TAF weather

Enter ICAO airport designator
Station Type Date Time Source
KFAT METAR 2019/06/19 06:53 UTC NOAA

KFAT 190653Z 32007KT 10SM CLR 30/17 A2984 RMK AO2 SLP100 T03000172


Station Type Date Time Source
KFAT Decoded METAR 2019/06/19 06:53 UTC NOAA

FRESNO AIR TERMINAL, CA, United States (KFAT) 36-47N 119-43W 104M
Jun 19, 2019 - 02:53 AM EDT / 2019.06.19 0653 UTC
Wind: from the NW (320 degrees) at 8 MPH (7 KT):0
Visibility: 10 mile(s):0
Sky conditions: clear
Temperature: 86.0 F (30.0 C)
Dew Point: 63.0 F (17.2 C)
Relative Humidity: 46%
Pressure (altimeter): 29.84 in. Hg (1010 hPa)
ob: KFAT 190653Z 32007KT 10SM CLR 30/17 A2984 RMK AO2 SLP100 T03000172
cycle: 7

Station Type Date Time Source
KFAT TAF 2019/06/19 06:22 UTC NOAA

TAF KFAT 190520Z 1906/2006 31009KT P6SM SKC

Example: see airport list